createdAt,value
2022-10-08T00:01:37.244Z,10.25
2022-10-08T00:04:04.789Z,9.82
2022-10-08T00:06:33.155Z,10.35
2022-10-08T00:09:03.503Z,9.68
2022-10-08T00:11:33.720Z,9.65
2022-10-08T00:14:02.172Z,9.75
2022-10-08T00:16:36.122Z,9.75
2022-10-08T00:19:06.895Z,10.20
2022-10-08T00:21:36.960Z,10.00
2022-10-08T00:24:06.258Z,9.48
2022-10-08T00:26:39.751Z,9.95
2022-10-08T00:29:14.232Z,9.35
2022-10-08T00:31:45.402Z,9.98
2022-10-08T00:34:19.770Z,9.23
2022-10-08T00:36:51.772Z,8.48
2022-10-08T00:39:22.630Z,8.23
2022-10-08T00:41:52.413Z,7.78
2022-10-08T00:44:51.628Z,8.30
2022-10-08T00:47:37.151Z,8.32
2022-10-08T00:50:25.483Z,8.25
2022-10-08T00:52:56.850Z,8.13
2022-10-08T00:55:28.100Z,8.50
2022-10-08T00:58:02.209Z,9.07
2022-10-08T01:00:31.186Z,7.95
2022-10-08T01:02:59.301Z,8.38
2022-10-08T01:05:46.920Z,9.27
2022-10-08T01:08:38.366Z,9.35
2022-10-08T01:11:23.066Z,8.73
2022-10-08T01:14:05.478Z,9.02
2022-10-08T01:19:20.545Z,8.82
2022-10-08T01:22:09.123Z,8.57
2022-10-08T01:25:07.952Z,9.15
2022-10-08T01:27:44.421Z,9.27
2022-10-08T01:30:15.110Z,9.45
2022-10-08T01:32:56.268Z,9.45
2022-10-08T01:35:37.772Z,9.48
2022-10-08T01:38:07.086Z,9.65
2022-10-08T01:40:39.566Z,9.90
2022-10-08T01:43:10.343Z,9.48
2022-10-08T01:45:54.755Z,11.00
2022-10-08T01:48:34.045Z,9.65
2022-10-08T01:51:15.292Z,10.25
2022-10-08T01:53:46.003Z,11.30
2022-10-08T01:56:19.875Z,11.25
2022-10-08T01:58:55.629Z,10.52
2022-10-08T02:01:41.307Z,9.52
2022-10-08T02:04:27.105Z,8.80
2022-10-08T02:06:59.325Z,8.70
2022-10-08T02:11:55.329Z,8.88
2022-10-08T02:14:26.569Z,8.50
2022-10-08T02:17:01.103Z,8.57
2022-10-08T02:20:19.823Z,10.25
2022-10-08T02:22:59.357Z,11.40
2022-10-08T02:25:44.723Z,9.18
2022-10-08T02:28:37.180Z,8.88
2022-10-08T02:31:26.674Z,8.75
2022-10-08T02:34:02.868Z,9.23
2022-10-08T02:36:40.715Z,9.23
2022-10-08T02:39:10.227Z,8.55
2022-10-08T02:41:52.268Z,9.07
2022-10-08T02:44:29.015Z,8.80
2022-10-08T02:47:00.457Z,9.82
2022-10-08T02:49:31.837Z,9.27
2022-10-08T02:52:01.906Z,9.00
2022-10-08T02:54:36.037Z,9.18
2022-10-08T02:57:38.187Z,9.15
2022-10-08T03:00:07.026Z,9.23
2022-10-08T03:02:43.798Z,8.75
2022-10-08T03:05:19.765Z,9.27
2022-10-08T03:07:50.481Z,9.10
2022-10-08T03:10:19.920Z,9.25
2022-10-08T03:12:47.886Z,8.90
2022-10-08T03:15:15.579Z,9.10
2022-10-08T03:17:46.369Z,9.07
2022-10-08T03:20:14.165Z,9.15
2022-10-08T03:22:41.654Z,9.15
2022-10-08T03:25:09.332Z,8.88
2022-10-08T03:27:36.790Z,9.27
2022-10-08T03:30:05.408Z,9.20
2022-10-08T03:32:32.766Z,8.98
2022-10-08T03:35:00.135Z,8.88
2022-10-08T03:37:27.527Z,9.50
2022-10-08T03:39:54.880Z,9.15
2022-10-08T03:42:22.262Z,8.38
2022-10-08T03:44:49.584Z,9.05
2022-10-08T03:47:16.950Z,9.32
2022-10-08T03:49:44.349Z,9.43
2022-10-08T03:52:11.668Z,8.88
2022-10-08T03:54:39.061Z,9.20
2022-10-08T03:57:06.459Z,8.05
2022-10-08T03:59:33.858Z,9.18
2022-10-08T04:02:01.186Z,8.70
2022-10-08T04:04:28.667Z,9.65
2022-10-08T04:06:56.030Z,9.57
2022-10-08T04:09:23.416Z,9.32
2022-10-08T04:11:50.800Z,8.82
2022-10-08T04:14:18.197Z,10.10
2022-10-08T04:16:45.640Z,11.40
2022-10-08T04:19:13.145Z,8.85
2022-10-08T04:21:40.582Z,8.68
2022-10-08T04:24:09.208Z,10.20
2022-10-08T04:26:36.621Z,8.93
2022-10-08T04:29:04.087Z,9.57
2022-10-08T04:31:31.524Z,10.95
2022-10-08T04:33:58.932Z,9.63
2022-10-08T04:36:26.397Z,9.32
2022-10-08T04:38:53.802Z,9.68
2022-10-08T04:41:23.850Z,10.18
2022-10-08T04:43:52.404Z,10.00
2022-10-08T04:46:22.008Z,10.40
2022-10-08T04:48:52.609Z,11.48
2022-10-08T04:51:22.707Z,10.38
2022-10-08T04:53:50.553Z,10.38
2022-10-08T04:56:23.130Z,10.02
2022-10-08T04:58:51.164Z,10.10
2022-10-08T05:01:20.060Z,9.95
2022-10-08T05:03:49.906Z,11.55
2022-10-08T05:06:19.669Z,10.98
2022-10-08T05:08:47.683Z,10.35
2022-10-08T05:11:16.371Z,11.32
2022-10-08T05:13:44.138Z,12.02
2022-10-08T05:16:13.542Z,12.18
2022-10-08T05:18:42.302Z,10.88
2022-10-08T05:21:18.516Z,11.27
2022-10-08T05:23:46.146Z,11.13
2022-10-08T05:26:35.899Z,11.10
2022-10-08T05:29:11.075Z,11.60
2022-10-08T05:31:38.926Z,10.80
2022-10-08T05:34:06.374Z,12.77
2022-10-08T05:36:34.483Z,12.23
2022-10-08T05:39:03.971Z,11.73
2022-10-08T05:41:33.906Z,11.43
2022-10-08T05:44:04.213Z,13.13
2022-10-08T05:46:33.730Z,11.93
2022-10-08T05:49:03.060Z,12.60
2022-10-08T05:51:30.939Z,12.13
2022-10-08T05:54:00.150Z,12.10
2022-10-08T05:56:28.745Z,11.13
2022-10-08T05:58:56.118Z,11.77
2022-10-08T06:01:28.853Z,11.40
2022-10-08T06:03:58.972Z,11.98
2022-10-08T06:06:26.921Z,15.48
2022-10-08T06:08:56.002Z,12.60
2022-10-08T06:11:23.273Z,11.30
2022-10-08T06:13:55.209Z,11.68
2022-10-08T06:16:23.509Z,11.65
2022-10-08T06:18:50.941Z,15.93
2022-10-08T06:21:21.182Z,12.35
2022-10-08T06:23:53.797Z,11.75
2022-10-08T06:26:22.711Z,12.80
2022-10-08T06:28:50.306Z,12.52
2022-10-08T06:31:18.087Z,13.07
2022-10-08T06:33:45.962Z,13.50
2022-10-08T06:36:15.198Z,11.77
2022-10-08T06:38:42.614Z,12.90
2022-10-08T06:41:10.092Z,12.73
2022-10-08T06:43:37.484Z,10.90
2022-10-08T06:46:06.109Z,10.65
2022-10-08T06:48:34.153Z,12.75
2022-10-08T06:51:07.255Z,10.85
2022-10-08T06:53:35.038Z,10.98
2022-10-08T06:56:06.000Z,10.48
2022-10-08T06:58:35.256Z,11.65
2022-10-08T07:01:12.469Z,12.55
2022-10-08T07:03:40.071Z,13.95
2022-10-08T07:06:09.776Z,11.07
2022-10-08T07:08:37.211Z,10.30
2022-10-08T07:11:08.673Z,11.20
2022-10-08T07:13:38.115Z,10.63
2022-10-08T07:16:08.295Z,11.60
2022-10-08T07:18:37.098Z,18.48
2022-10-08T07:21:05.885Z,12.40
2022-10-08T07:23:33.615Z,13.30
2022-10-08T07:26:07.214Z,13.15
2022-10-08T07:28:36.897Z,12.30
2022-10-08T07:31:06.142Z,15.85
2022-10-08T07:33:33.835Z,12.10
2022-10-08T07:36:12.970Z,11.75
2022-10-08T07:38:41.365Z,11.10
2022-10-08T07:41:10.158Z,11.60
2022-10-08T07:43:40.993Z,13.35
2022-10-08T07:46:10.127Z,13.02
2022-10-08T07:48:38.529Z,13.75
2022-10-08T07:51:26.792Z,14.80
2022-10-08T07:53:56.781Z,15.20
2022-10-08T07:56:27.612Z,13.55
2022-10-08T07:58:55.049Z,13.77
2022-10-08T08:01:28.599Z,13.13
2022-10-08T08:04:08.050Z,13.95
2022-10-08T08:06:49.724Z,10.50
2022-10-08T08:09:18.501Z,12.73
2022-10-08T08:11:47.364Z,10.48
2022-10-08T08:14:14.788Z,19.42
2022-10-08T08:16:42.255Z,10.88
2022-10-08T08:19:09.671Z,10.55
2022-10-08T08:21:39.235Z,10.43
2022-10-08T08:24:10.622Z,10.45
2022-10-08T08:26:39.673Z,9.60
2022-10-08T08:29:12.033Z,11.48
2022-10-08T08:34:10.214Z,10.57
2022-10-08T08:36:42.555Z,10.00
2022-10-08T08:41:44.273Z,10.77
2022-10-08T08:44:18.887Z,10.25
2022-10-08T08:46:52.351Z,10.60
2022-10-08T08:49:31.589Z,10.23
2022-10-08T08:52:01.637Z,9.30
2022-10-08T08:54:29.200Z,11.02
2022-10-08T08:57:12.823Z,10.27
2022-10-08T08:59:45.224Z,9.82
2022-10-08T09:02:51.965Z,10.23
2022-10-08T09:05:20.488Z,10.88
2022-10-08T09:08:00.780Z,10.07
2022-10-08T09:10:43.100Z,10.85
2022-10-08T09:13:18.884Z,10.70
2022-10-08T09:15:47.060Z,10.57
2022-10-08T09:18:16.388Z,10.95
2022-10-08T09:20:44.744Z,11.63
2022-10-08T09:23:23.284Z,10.50
2022-10-08T09:26:08.931Z,10.57
2022-10-08T09:28:42.063Z,11.57
2022-10-08T09:31:18.258Z,11.60
2022-10-08T09:33:52.645Z,11.57
2022-10-08T09:36:38.020Z,11.68
2022-10-08T09:39:16.139Z,11.93
2022-10-08T09:41:45.747Z,11.65
2022-10-08T09:44:16.594Z,12.13
2022-10-08T09:46:44.977Z,12.25
2022-10-08T09:49:28.088Z,12.32
2022-10-08T09:51:59.638Z,13.65
2022-10-08T09:54:56.192Z,12.60
2022-10-08T09:57:23.667Z,12.52
2022-10-08T09:59:54.873Z,12.50
2022-10-08T10:02:37.271Z,13.18
2022-10-08T10:07:46.280Z,12.52
2022-10-08T10:10:16.791Z,12.25
2022-10-08T10:12:49.266Z,15.93
2022-10-08T10:15:26.373Z,13.88
2022-10-08T10:18:04.865Z,12.85
2022-10-08T10:21:01.323Z,15.45
2022-10-08T10:23:40.642Z,14.73
2022-10-08T10:26:15.425Z,14.73
2022-10-08T10:28:54.855Z,15.57
2022-10-08T10:31:36.832Z,15.02
2022-10-08T10:34:13.129Z,15.27
2022-10-08T10:36:49.502Z,15.27
2022-10-08T10:39:35.669Z,15.70
2022-10-08T10:42:38.292Z,15.00
2022-10-08T10:45:14.794Z,16.70
2022-10-08T10:47:42.226Z,17.10
2022-10-08T10:50:14.393Z,17.52
2022-10-08T10:55:59.213Z,17.08
2022-10-08T10:58:40.261Z,18.38
2022-10-08T11:01:26.032Z,17.15
2022-10-08T11:04:15.181Z,18.70
2022-10-08T11:07:17.802Z,18.35
2022-10-08T11:10:00.483Z,17.95
2022-10-08T11:12:52.987Z,17.27
2022-10-08T11:15:43.159Z,16.17
2022-10-08T11:18:10.502Z,18.15
2022-10-08T11:20:58.071Z,19.20
2022-10-08T11:24:03.858Z,19.45
2022-10-08T11:26:52.413Z,18.23
2022-10-08T11:29:50.484Z,19.20
2022-10-08T11:32:19.339Z,19.52
2022-10-08T11:34:53.258Z,19.40
2022-10-08T11:37:28.209Z,18.15
2022-10-08T11:40:06.434Z,18.02
2022-10-08T11:42:50.893Z,18.52
2022-10-08T11:45:24.347Z,17.77
2022-10-08T11:47:57.482Z,17.23
2022-10-08T11:50:26.864Z,17.30
2022-10-08T11:52:58.743Z,16.70
2022-10-08T11:55:32.506Z,18.10
2022-10-08T11:58:08.994Z,16.48
2022-10-08T12:00:41.345Z,17.63
2022-10-08T12:03:28.239Z,18.38
2022-10-08T12:06:13.814Z,21.63
2022-10-08T12:09:00.994Z,19.50
2022-10-08T12:11:40.306Z,18.23
2022-10-08T12:14:14.347Z,20.02
2022-10-08T12:16:47.851Z,19.55
2022-10-08T12:19:36.332Z,17.48
2022-10-08T12:22:16.725Z,17.50
2022-10-08T12:24:49.589Z,17.45
2022-10-08T12:27:17.939Z,17.15
2022-10-08T12:29:55.171Z,17.30
2022-10-08T12:32:31.230Z,18.08
2022-10-08T12:34:59.727Z,19.65
2022-10-08T12:37:42.361Z,19.85
2022-10-08T12:40:18.489Z,19.30
2022-10-08T12:42:47.160Z,18.60
2022-10-08T12:45:29.016Z,16.88
2022-10-08T12:48:06.550Z,17.60
2022-10-08T12:51:02.503Z,18.00
2022-10-08T12:53:30.303Z,17.30
2022-10-08T12:55:58.469Z,16.25
2022-10-08T12:58:33.395Z,15.07
2022-10-08T13:01:04.295Z,15.23
2022-10-08T13:03:31.830Z,14.25
2022-10-08T13:06:23.673Z,13.75
2022-10-08T13:08:51.236Z,14.57
2022-10-08T13:11:18.984Z,14.35
2022-10-08T13:13:50.692Z,13.73
2022-10-08T13:16:23.936Z,15.20
2022-10-08T13:18:58.511Z,15.68
2022-10-08T13:21:32.104Z,15.63
2022-10-08T13:24:20.841Z,16.13
2022-10-08T13:26:50.654Z,14.55
2022-10-08T13:29:23.974Z,14.43
2022-10-08T13:32:14.735Z,17.08
2022-10-08T13:34:46.369Z,15.82
2022-10-08T13:37:24.180Z,16.65
2022-10-08T13:39:53.102Z,16.67
2022-10-08T13:42:23.419Z,16.48
2022-10-08T13:44:51.486Z,15.88
2022-10-08T13:47:21.462Z,16.02
2022-10-08T13:49:49.000Z,16.33
2022-10-08T13:52:21.375Z,15.48
2022-10-08T13:54:51.524Z,14.88
2022-10-08T13:57:18.949Z,15.35
2022-10-08T13:59:46.311Z,14.55
2022-10-08T14:02:14.495Z,16.17
2022-10-08T14:04:42.108Z,15.75
2022-10-08T14:07:21.159Z,14.82
2022-10-08T14:09:48.597Z,15.20
2022-10-08T14:12:17.021Z,15.13
2022-10-08T14:14:44.348Z,16.77
2022-10-08T14:17:11.690Z,14.88
2022-10-08T14:19:39.033Z,18.52
2022-10-08T14:22:06.361Z,15.45
2022-10-08T14:24:33.709Z,13.82
2022-10-08T14:27:07.410Z,13.55
2022-10-08T14:29:35.999Z,14.95
2022-10-08T14:32:04.681Z,14.05
2022-10-08T14:34:32.093Z,13.95
2022-10-08T14:36:59.929Z,14.05
2022-10-08T14:39:28.153Z,14.63
2022-10-08T14:41:55.549Z,14.82
2022-10-08T14:44:22.977Z,12.75
2022-10-08T14:46:53.935Z,14.50
2022-10-08T14:49:22.155Z,16.00
2022-10-08T14:51:49.649Z,13.57
2022-10-08T14:54:18.091Z,14.40
2022-10-08T14:56:46.523Z,13.75
2022-10-08T14:59:14.055Z,13.88
2022-10-08T15:01:41.476Z,13.73
2022-10-08T15:04:13.427Z,14.07
2022-10-08T15:06:41.052Z,12.95
2022-10-08T15:09:10.890Z,11.77
2022-10-08T15:11:38.736Z,14.40
2022-10-08T15:14:06.302Z,13.95
2022-10-08T15:16:33.715Z,18.85
2022-10-08T15:19:01.124Z,14.65
2022-10-08T15:21:28.544Z,14.55
2022-10-08T15:23:57.022Z,12.30
2022-10-08T15:26:24.465Z,13.15
2022-10-08T15:28:53.597Z,13.00
2022-10-08T15:31:25.174Z,13.57
2022-10-08T15:33:54.343Z,11.20
2022-10-08T15:36:33.038Z,12.00
2022-10-08T15:39:06.213Z,10.32
2022-10-08T15:41:38.247Z,10.13
2022-10-08T15:44:17.479Z,10.93
2022-10-08T15:46:49.319Z,10.18
2022-10-08T15:49:16.851Z,9.35
2022-10-08T15:51:44.156Z,8.48
2022-10-08T15:54:11.490Z,10.77
2022-10-08T15:56:38.898Z,9.27
2022-10-08T15:59:06.405Z,10.25
2022-10-08T16:01:33.801Z,9.55
2022-10-08T16:04:01.335Z,9.15
2022-10-08T16:06:33.929Z,11.40
2022-10-08T16:09:02.169Z,8.85
2022-10-08T16:11:34.732Z,8.25
2022-10-08T16:14:22.686Z,8.25
2022-10-08T16:16:51.269Z,8.65
2022-10-08T16:19:21.463Z,8.73
2022-10-08T16:21:50.287Z,8.90
2022-10-08T16:24:18.070Z,9.98
2022-10-08T16:26:47.054Z,9.93
2022-10-08T16:29:16.593Z,13.95
2022-10-08T16:31:45.453Z,13.00
2022-10-08T16:34:16.002Z,10.50
2022-10-08T16:36:44.168Z,12.80
2022-10-08T16:39:13.658Z,13.80
2022-10-08T16:41:41.425Z,10.93
2022-10-08T16:44:12.905Z,9.57
2022-10-08T16:46:43.845Z,12.88
2022-10-08T16:49:21.315Z,14.48
2022-10-08T16:51:53.249Z,12.60
2022-10-08T16:54:20.692Z,10.18
2022-10-08T16:56:48.245Z,15.20
2022-10-08T16:59:19.348Z,13.15
2022-10-08T17:01:50.018Z,13.18
2022-10-08T17:04:19.614Z,13.63
2022-10-08T17:06:47.324Z,17.17
2022-10-08T17:09:14.836Z,20.08
2022-10-08T17:11:42.454Z,25.20
2022-10-08T17:14:11.564Z,22.25
2022-10-08T17:16:40.344Z,21.25
2022-10-08T17:19:07.761Z,20.42
2022-10-08T17:21:36.037Z,20.50
2022-10-08T17:24:03.458Z,20.20
2022-10-08T17:26:31.535Z,20.98
2022-10-08T17:29:07.842Z,20.92
2022-10-08T17:31:36.284Z,21.75
2022-10-08T17:34:04.466Z,20.25
2022-10-08T17:36:34.831Z,20.85
2022-10-08T17:39:04.489Z,20.17
2022-10-08T17:41:34.766Z,20.88
2022-10-08T17:44:04.579Z,19.15
2022-10-08T17:46:35.131Z,18.98
2022-10-08T17:49:03.512Z,18.85
2022-10-08T17:51:32.015Z,18.20
2022-10-08T17:54:04.700Z,18.20
2022-10-08T17:56:32.911Z,18.45
2022-10-08T17:59:00.799Z,17.73
2022-10-08T18:01:34.232Z,17.85
2022-10-08T18:04:09.915Z,17.30
2022-10-08T18:06:43.093Z,17.35
2022-10-08T18:09:13.450Z,18.13
2022-10-08T18:11:43.391Z,16.67
2022-10-08T18:14:11.296Z,15.23
2022-10-08T18:16:39.082Z,15.63
2022-10-08T18:19:08.902Z,16.20
2022-10-08T18:21:36.823Z,15.95
2022-10-08T18:24:04.835Z,15.98
2022-10-08T18:26:34.753Z,16.17
2022-10-08T18:29:05.675Z,17.13
2022-10-08T18:31:33.711Z,16.00
2022-10-08T18:34:06.356Z,16.42
2022-10-08T18:36:36.083Z,15.75
2022-10-08T18:39:15.829Z,15.65
2022-10-08T18:41:45.645Z,15.07
2022-10-08T18:44:16.551Z,15.95
2022-10-08T18:46:45.149Z,16.02
2022-10-08T18:49:14.069Z,17.20
2022-10-08T18:51:41.589Z,15.73
2022-10-08T18:54:09.735Z,16.55
2022-10-08T18:56:39.402Z,16.17
2022-10-08T18:59:09.072Z,16.58
2022-10-08T19:01:39.536Z,15.57
2022-10-08T19:04:11.452Z,16.75
2022-10-08T19:06:41.834Z,16.75
2022-10-08T19:09:09.704Z,16.00
2022-10-08T19:11:44.980Z,15.68
2022-10-08T19:14:15.615Z,16.70
2022-10-08T19:16:43.909Z,16.55
2022-10-08T19:19:21.760Z,17.80
2022-10-08T19:21:50.423Z,17.88
2022-10-08T19:24:20.556Z,17.23
2022-10-08T19:26:48.964Z,17.05
2022-10-08T19:29:19.053Z,17.63
2022-10-08T19:31:47.727Z,17.67
2022-10-08T19:34:18.861Z,18.30
2022-10-08T19:36:46.907Z,17.95
2022-10-08T19:39:20.170Z,17.67
2022-10-08T19:41:47.804Z,18.02
2022-10-08T19:44:16.635Z,18.63
2022-10-08T19:46:44.555Z,19.40
2022-10-08T19:49:12.091Z,21.05
2022-10-08T19:51:40.282Z,21.25
2022-10-08T19:54:07.862Z,20.48
2022-10-08T19:56:36.341Z,22.40
2022-10-08T19:59:04.656Z,21.52
2022-10-08T20:01:34.766Z,18.38
2022-10-08T20:04:03.586Z,20.60
2022-10-08T20:06:32.782Z,19.95
2022-10-08T20:09:02.840Z,19.42
2022-10-08T20:11:31.851Z,21.13
2022-10-08T20:14:00.319Z,20.27
2022-10-08T20:16:30.475Z,20.33
2022-10-08T20:19:04.517Z,20.15
2022-10-08T20:21:35.186Z,19.75
2022-10-08T20:24:03.679Z,20.23
2022-10-08T20:26:33.747Z,18.73
2022-10-08T20:29:03.640Z,19.85
2022-10-08T20:31:33.759Z,19.88
2022-10-08T20:34:06.623Z,19.98
2022-10-08T20:36:34.360Z,21.42
2022-10-08T20:39:02.229Z,20.95
2022-10-08T20:41:31.212Z,19.92
2022-10-08T20:44:03.475Z,18.50
2022-10-08T20:46:32.675Z,17.27
2022-10-08T20:49:00.625Z,18.83
2022-10-08T20:51:29.340Z,18.42
2022-10-08T20:54:02.515Z,17.90
2022-10-08T20:56:34.669Z,18.02
2022-10-08T20:59:05.464Z,18.48
2022-10-08T21:01:35.525Z,18.92
2022-10-08T21:04:03.752Z,19.00
2022-10-08T21:06:37.222Z,18.50
2022-10-08T21:09:05.150Z,18.23
2022-10-08T21:11:32.779Z,17.88
2022-10-08T21:14:01.802Z,18.27
2022-10-08T21:16:35.518Z,18.33
2022-10-08T21:19:05.283Z,18.75
2022-10-08T21:21:34.531Z,17.55
2022-10-08T21:24:02.328Z,17.05
2022-10-08T21:26:38.381Z,17.20
2022-10-08T21:29:08.573Z,18.02
2022-10-08T21:31:37.828Z,16.77
2022-10-08T21:34:05.723Z,17.15
2022-10-08T21:36:36.877Z,17.48
2022-10-08T21:39:07.014Z,17.77
2022-10-08T21:41:36.818Z,17.42
2022-10-08T21:44:06.550Z,17.92
2022-10-08T21:46:36.690Z,19.15
2022-10-08T21:49:10.417Z,18.27
2022-10-08T21:51:37.947Z,19.55
2022-10-08T21:54:06.688Z,20.08
2022-10-08T21:56:36.448Z,20.45
2022-10-08T21:59:05.707Z,20.73
2022-10-08T22:01:42.394Z,19.15
2022-10-08T22:04:12.689Z,20.17
2022-10-08T22:06:43.647Z,19.98
2022-10-08T22:09:14.666Z,19.50
2022-10-08T22:11:42.122Z,20.42
2022-10-08T22:14:09.783Z,20.02
2022-10-08T22:16:37.768Z,19.77
2022-10-08T22:19:05.859Z,20.25
2022-10-08T22:21:33.888Z,20.10
2022-10-08T22:24:01.731Z,20.58
2022-10-08T22:26:32.816Z,21.65
2022-10-08T22:29:00.857Z,21.33
2022-10-08T22:31:29.601Z,19.88
2022-10-08T22:33:57.091Z,19.73
2022-10-08T22:36:37.131Z,20.75
2022-10-08T22:39:04.508Z,20.13
2022-10-08T22:41:32.760Z,19.50
2022-10-08T22:44:00.694Z,19.98
2022-10-08T22:46:30.675Z,20.75
2022-10-08T22:49:03.399Z,19.88
2022-10-08T22:51:31.360Z,20.02
2022-10-08T22:53:59.138Z,20.42
2022-10-08T22:56:29.573Z,20.50
2022-10-08T22:58:59.167Z,19.80
2022-10-08T23:01:28.483Z,20.70
2022-10-08T23:03:56.270Z,20.92
2022-10-08T23:06:32.352Z,20.27
2022-10-08T23:09:01.810Z,20.98
2022-10-08T23:11:30.122Z,20.83
2022-10-08T23:13:58.875Z,21.50
2022-10-08T23:16:28.627Z,19.63
2022-10-08T23:18:58.642Z,21.05
2022-10-08T23:21:26.791Z,20.02
2022-10-08T23:23:55.137Z,19.35
2022-10-08T23:26:23.558Z,21.67
2022-10-08T23:28:53.390Z,19.35
2022-10-08T23:31:23.700Z,19.90
2022-10-08T23:33:52.698Z,19.52
2022-10-08T23:36:26.938Z,19.70
2022-10-08T23:38:55.571Z,19.95
2022-10-08T23:41:23.467Z,20.42
2022-10-08T23:43:52.298Z,19.77
2022-10-08T23:46:22.605Z,20.33
2022-10-08T23:48:50.784Z,19.17
2022-10-08T23:51:19.935Z,19.92
2022-10-08T23:53:47.910Z,20.65
2022-10-08T23:56:15.345Z,21.00
2022-10-08T23:58:42.991Z,19.95
